LAS weather

McCarran International Airport
Las Vegas, Nevada, United States

Public forecast

Using degrees Fahrenheit for public forecast. Weather courtesy of forecast.io.

METAR (pilot weather report)

Retrieved 2017/02/24 06:56 UTC (58 minutes ago):

KLAS 240656Z 32007KT 10SM FEW110 09/M14 A2999

TAF (pilot weather forecast)

Retrieved 2017/02/24 06:24 UTC (2 hours ago):

TAF KLAS 240520Z 2406/2506 32010KT P6SM SKC FM241600 04005KT P6SM FEW250 FM242000 04005KT P6SM FEW100 SCT250 FM242300 VRB05KT P6SM FEW100 SCT250